createdAt,value
2022-08-07T00:02:36.883Z,17.47
2022-08-07T00:04:59.773Z,17.44
2022-08-07T00:07:27.562Z,17.32
2022-08-07T00:10:19.359Z,17.22
2022-08-07T00:12:57.675Z,17.16
2022-08-07T00:15:25.672Z,17.13
2022-08-07T00:18:03.126Z,16.99
2022-08-07T00:20:34.378Z,16.93
2022-08-07T00:23:02.250Z,17.05
2022-08-07T00:25:28.927Z,17.01
2022-08-07T00:28:04.608Z,16.99
2022-08-07T00:30:31.736Z,16.91
2022-08-07T00:32:59.879Z,16.93
2022-08-07T00:35:30.437Z,17.00
2022-08-07T00:37:58.478Z,17.00
2022-08-07T00:40:36.414Z,17.02
2022-08-07T00:43:09.958Z,17.03
2022-08-07T00:45:41.443Z,17.07
2022-08-07T00:48:13.069Z,17.05
2022-08-07T00:50:46.256Z,16.94
2022-08-07T00:53:20.095Z,16.86
2022-08-07T00:56:03.327Z,16.83
2022-08-07T00:58:32.390Z,16.70
2022-08-07T01:00:59.921Z,16.52
2022-08-07T01:03:54.579Z,16.40
2022-08-07T01:06:13.778Z,16.23
2022-08-07T01:08:51.362Z,16.12
2022-08-07T01:12:23.335Z,15.97
2022-08-07T01:14:08.801Z,15.98
2022-08-07T01:16:36.688Z,16.05
2022-08-07T01:19:18.230Z,16.08
2022-08-07T01:21:53.342Z,15.97
2022-08-07T01:24:22.500Z,15.91
2022-08-07T01:26:52.753Z,15.75
2022-08-07T01:29:23.110Z,15.67
2022-08-07T01:31:50.820Z,15.62
2022-08-07T01:34:18.601Z,15.65
2022-08-07T01:36:52.967Z,15.59
2022-08-07T01:39:39.657Z,15.49
2022-08-07T01:42:38.097Z,15.37
2022-08-07T01:44:54.662Z,15.20
2022-08-07T01:48:29.726Z,15.12
2022-08-07T01:50:09.032Z,15.03
2022-08-07T01:52:40.845Z,15.02
2022-08-07T01:55:22.491Z,15.13
2022-08-07T01:58:05.901Z,15.21
2022-08-07T02:00:45.440Z,15.30
2022-08-07T02:03:25.006Z,15.27
2022-08-07T02:06:08.937Z,15.33
2022-08-07T02:08:54.410Z,15.31
2022-08-07T02:11:30.741Z,15.33
2022-08-07T02:14:09.721Z,15.36
2022-08-07T02:16:42.547Z,15.39
2022-08-07T02:20:04.473Z,15.30
2022-08-07T02:22:01.697Z,15.30
2022-08-07T02:24:30.285Z,15.34
2022-08-07T02:27:01.200Z,15.40
2022-08-07T02:29:30.645Z,15.43
2022-08-07T02:31:58.896Z,15.45
2022-08-07T02:34:27.037Z,15.43
2022-08-07T02:36:53.571Z,15.39
2022-08-07T02:39:43.518Z,15.24
2022-08-07T02:42:10.093Z,14.97
2022-08-07T02:44:47.577Z,14.84
2022-08-07T02:47:19.228Z,14.87
2022-08-07T02:49:58.785Z,14.75
2022-08-07T02:52:33.071Z,14.64
2022-08-07T02:55:27.308Z,14.61
2022-08-07T02:57:59.009Z,14.54
2022-08-07T03:00:28.489Z,14.50
2022-08-07T03:02:57.542Z,14.29
2022-08-07T03:05:24.845Z,14.26
2022-08-07T03:08:07.340Z,14.25
2022-08-07T03:10:40.927Z,14.33
2022-08-07T03:13:19.292Z,14.42
2022-08-07T03:15:56.318Z,14.47
2022-08-07T03:18:34.295Z,14.49
2022-08-07T03:21:08.901Z,14.37
2022-08-07T03:24:19.406Z,14.32
2022-08-07T03:26:30.019Z,14.30
2022-08-07T03:28:58.517Z,14.40
2022-08-07T03:31:43.377Z,14.53
2022-08-07T03:34:18.808Z,14.53
2022-08-07T03:36:51.693Z,14.57
2022-08-07T03:39:46.155Z,14.56
2022-08-07T03:42:07.898Z,14.47
2022-08-07T03:44:36.890Z,14.37
2022-08-07T03:47:13.287Z,14.28
2022-08-07T03:49:48.049Z,14.23
2022-08-07T03:52:27.014Z,14.23
2022-08-07T03:55:06.965Z,14.30
2022-08-07T03:58:32.890Z,14.39
2022-08-07T04:00:30.286Z,14.37
2022-08-07T04:02:59.370Z,14.32
2022-08-07T04:05:39.580Z,14.22
2022-08-07T04:08:11.343Z,14.16
2022-08-07T04:10:42.391Z,14.09
2022-08-07T04:13:15.293Z,13.93
2022-08-07T04:15:43.339Z,13.77
2022-08-07T04:18:57.462Z,13.69
2022-08-07T04:21:01.050Z,13.63
2022-08-07T04:23:43.444Z,13.77
2022-08-07T04:26:16.929Z,13.78
2022-08-07T04:28:48.989Z,13.79
2022-08-07T04:31:19.869Z,13.75
2022-08-07T04:33:47.379Z,13.73
2022-08-07T04:36:22.809Z,13.72
2022-08-07T04:38:53.232Z,13.69
2022-08-07T04:41:20.411Z,13.75
2022-08-07T04:44:10.046Z,13.75
2022-08-07T04:47:03.845Z,13.90
2022-08-07T04:50:03.631Z,13.95
2022-08-07T04:52:51.166Z,13.94
2022-08-07T04:58:10.347Z,14.04
2022-08-07T04:59:16.715Z,14.09
2022-08-07T05:01:30.407Z,14.25
2022-08-07T05:04:07.419Z,14.32
2022-08-07T05:06:51.222Z,14.30
2022-08-07T05:09:45.872Z,14.30
2022-08-07T05:12:27.044Z,14.38
2022-08-07T05:15:21.609Z,14.44
2022-08-07T05:17:57.455Z,14.47
2022-08-07T05:20:33.615Z,14.49
2022-08-07T05:23:15.861Z,14.56
2022-08-07T05:26:10.567Z,14.67
2022-08-07T05:28:33.365Z,14.78
2022-08-07T05:31:01.398Z,14.84
2022-08-07T05:33:31.261Z,14.87
2022-08-07T05:36:04.345Z,14.95
2022-08-07T05:39:01.045Z,15.06
2022-08-07T05:41:21.767Z,15.03
2022-08-07T05:44:12.359Z,15.18
2022-08-07T05:46:39.563Z,15.19
2022-08-07T05:49:12.446Z,15.23
2022-08-07T05:51:46.177Z,15.41
2022-08-07T05:54:30.256Z,15.49
2022-08-07T05:56:59.143Z,15.58
2022-08-07T05:59:27.314Z,15.53
2022-08-07T06:01:54.746Z,15.70
2022-08-07T06:04:26.378Z,15.73
2022-08-07T06:07:03.711Z,15.83
2022-08-07T06:10:04.437Z,15.96
2022-08-07T06:12:21.074Z,16.04
2022-08-07T06:15:05.341Z,16.22
2022-08-07T06:17:38.019Z,16.37
2022-08-07T06:20:12.557Z,16.80
2022-08-07T06:23:02.090Z,19.30
2022-08-07T06:25:40.749Z,21.54
2022-08-07T06:28:27.414Z,23.03
2022-08-07T06:30:55.711Z,23.89
2022-08-07T06:33:22.945Z,25.09
2022-08-07T06:36:11.793Z,25.23
2022-08-07T06:38:36.643Z,26.01
2022-08-07T06:41:09.783Z,26.44
2022-08-07T06:43:46.128Z,26.56
2022-08-07T06:46:14.675Z,28.21
2022-08-07T06:48:47.195Z,28.91
2022-08-07T06:51:24.591Z,26.90
2022-08-07T06:55:31.569Z,27.83
2022-08-07T06:56:50.810Z,28.82
2022-08-07T07:00:12.145Z,26.16
2022-08-07T07:02:26.954Z,25.53
2022-08-07T07:05:03.389Z,23.59
2022-08-07T07:07:58.526Z,24.48
2022-08-07T07:10:27.016Z,24.84
2022-08-07T07:12:58.587Z,25.88
2022-08-07T07:15:35.803Z,24.64
2022-08-07T07:18:11.476Z,25.09
2022-08-07T07:20:55.742Z,24.21
2022-08-07T07:24:06.369Z,23.80
2022-08-07T07:26:35.579Z,25.03
2022-08-07T07:29:39.078Z,27.94
2022-08-07T07:31:56.045Z,28.78
2022-08-07T07:34:30.810Z,28.03
2022-08-07T07:37:14.985Z,27.48
2022-08-07T07:39:55.322Z,26.71
2022-08-07T07:42:25.775Z,27.77
2022-08-07T07:45:04.072Z,26.79
2022-08-07T07:47:51.704Z,25.75
2022-08-07T07:50:35.165Z,26.48
2022-08-07T07:53:20.388Z,27.10
2022-08-07T07:55:57.468Z,25.50
2022-08-07T07:58:30.358Z,26.24
2022-08-07T08:02:04.099Z,28.92
2022-08-07T08:04:10.122Z,28.82
2022-08-07T08:06:40.658Z,30.33
2022-08-07T08:09:20.761Z,27.37
2022-08-07T08:12:02.374Z,27.55
2022-08-07T08:14:36.139Z,30.07
2022-08-07T08:17:55.934Z,30.02
2022-08-07T08:20:17.976Z,27.40
2022-08-07T08:23:02.331Z,27.22
2022-08-07T08:25:54.547Z,27.48
2022-08-07T08:28:37.922Z,28.07
2022-08-07T08:31:15.774Z,29.53
2022-08-07T08:33:49.837Z,30.13
2022-08-07T08:36:30.018Z,30.22
2022-08-07T08:39:02.167Z,30.43
2022-08-07T08:41:57.485Z,30.46
2022-08-07T08:44:44.283Z,30.06
2022-08-07T08:47:25.017Z,27.49
2022-08-07T08:50:05.689Z,26.88
2022-08-07T08:52:51.527Z,26.77
2022-08-07T08:55:54.435Z,27.43
2022-08-07T08:58:40.620Z,28.25
2022-08-07T09:01:43.601Z,26.43
2022-08-07T09:04:25.922Z,28.46
2022-08-07T09:07:06.057Z,31.27
2022-08-07T09:09:44.630Z,31.31
2022-08-07T09:12:41.185Z,30.01
2022-08-07T09:16:21.764Z,28.35
2022-08-07T09:18:41.500Z,28.95
2022-08-07T09:22:23.102Z,29.85
2022-08-07T09:24:59.285Z,30.12
2022-08-07T09:27:54.595Z,30.46
2022-08-07T09:30:46.407Z,28.66
2022-08-07T09:33:59.053Z,29.09
2022-08-07T09:36:35.693Z,29.14
2022-08-07T09:39:52.641Z,28.81
2022-08-07T09:42:33.584Z,27.27
2022-08-07T09:47:42.457Z,27.27
2022-08-07T09:48:20.206Z,27.13
2022-08-07T09:51:25.951Z,27.49
2022-08-07T09:54:02.790Z,28.49
2022-08-07T09:57:07.328Z,29.20
2022-08-07T10:00:14.702Z,29.15
2022-08-07T10:03:07.920Z,28.16
2022-08-07T10:05:59.651Z,28.23
2022-08-07T10:08:44.203Z,26.96
2022-08-07T10:12:01.963Z,28.31
2022-08-07T10:14:54.243Z,29.73
2022-08-07T10:18:01.475Z,28.38
2022-08-07T10:20:54.606Z,27.86
2022-08-07T10:24:06.094Z,29.22
2022-08-07T10:26:41.720Z,28.81
2022-08-07T10:29:25.763Z,27.72
2022-08-07T10:32:36.830Z,27.81
2022-08-07T10:35:20.710Z,26.82
2022-08-07T10:38:15.524Z,26.57
2022-08-07T10:41:05.540Z,26.45
2022-08-07T10:44:02.411Z,25.88
2022-08-07T10:46:59.820Z,27.02
2022-08-07T10:49:49.843Z,27.72
2022-08-07T10:52:42.631Z,26.71
2022-08-07T10:55:36.980Z,26.50
2022-08-07T10:58:33.210Z,26.82
2022-08-07T11:01:35.761Z,26.31
2022-08-07T11:04:37.554Z,26.36
2022-08-07T11:07:56.175Z,26.87
2022-08-07T11:10:16.182Z,27.41
2022-08-07T11:13:02.104Z,26.40
2022-08-07T11:15:38.580Z,27.18
2022-08-07T11:18:29.323Z,27.52
2022-08-07T11:21:14.934Z,27.46
2022-08-07T11:24:12.141Z,26.81
2022-08-07T11:26:55.796Z,26.83
2022-08-07T11:29:40.928Z,27.21
2022-08-07T11:32:32.013Z,27.25
2022-08-07T11:35:09.319Z,27.34
2022-08-07T11:38:17.586Z,27.31
2022-08-07T11:40:59.528Z,26.98
2022-08-07T11:43:54.966Z,27.31
2022-08-07T11:46:50.012Z,26.37
2022-08-07T11:49:50.828Z,26.27
2022-08-07T11:52:42.386Z,26.49
2022-08-07T11:56:09.115Z,26.41
2022-08-07T11:58:54.665Z,26.93
2022-08-07T12:01:22.196Z,27.26
2022-08-07T12:04:10.431Z,27.24
2022-08-07T12:07:09.134Z,27.45
2022-08-07T12:10:10.471Z,26.97
2022-08-07T12:12:56.984Z,26.41
2022-08-07T12:15:46.431Z,26.95
2022-08-07T12:18:45.466Z,26.41
2022-08-07T12:21:55.106Z,26.93
2022-08-07T12:24:40.299Z,27.39
2022-08-07T12:27:15.792Z,26.89
2022-08-07T12:29:52.832Z,26.59
2022-08-07T12:32:28.447Z,26.35
2022-08-07T12:35:02.284Z,26.57
2022-08-07T12:38:11.417Z,26.70
2022-08-07T12:40:46.345Z,27.06
2022-08-07T12:44:02.254Z,27.52
2022-08-07T12:46:32.703Z,27.76
2022-08-07T12:49:25.435Z,27.69
2022-08-07T12:52:17.891Z,28.09
2022-08-07T12:55:03.950Z,28.13
2022-08-07T12:58:00.397Z,27.66
2022-08-07T13:00:36.041Z,27.96
2022-08-07T13:04:02.150Z,27.88
2022-08-07T13:06:37.300Z,27.43
2022-08-07T13:10:21.958Z,27.69
2022-08-07T13:12:56.520Z,27.67
2022-08-07T13:15:42.652Z,27.86
2022-08-07T13:18:31.416Z,27.31
2022-08-07T13:21:37.291Z,27.10
2022-08-07T13:24:20.599Z,27.49
2022-08-07T13:27:21.234Z,26.52
2022-08-07T13:29:56.115Z,26.95
2022-08-07T13:32:50.022Z,27.05
2022-08-07T13:35:59.547Z,27.17
2022-08-07T13:38:35.045Z,27.52
2022-08-07T13:41:20.586Z,27.88
2022-08-07T13:43:52.783Z,27.88
2022-08-07T13:46:32.821Z,27.95
2022-08-07T13:49:01.917Z,27.23
2022-08-07T13:52:05.089Z,27.43
2022-08-07T13:54:23.783Z,27.60
2022-08-07T13:56:59.520Z,27.42
2022-08-07T13:59:31.303Z,27.34
2022-08-07T14:02:08.625Z,26.96
2022-08-07T14:04:54.730Z,27.48
2022-08-07T14:07:27.367Z,27.52
2022-08-07T14:10:02.375Z,27.61
2022-08-07T14:12:54.944Z,27.39
2022-08-07T14:15:36.040Z,27.52
2022-08-07T14:18:29.252Z,27.58
2022-08-07T14:22:00.950Z,27.43
2022-08-07T14:24:04.941Z,27.70
2022-08-07T14:26:58.697Z,27.76
2022-08-07T14:30:06.135Z,27.59
2022-08-07T14:32:26.674Z,28.03
2022-08-07T14:34:54.926Z,27.51
2022-08-07T14:37:36.319Z,27.27
2022-08-07T14:40:17.894Z,27.82
2022-08-07T14:43:58.429Z,27.92
2022-08-07T14:46:04.479Z,27.79
2022-08-07T14:48:35.650Z,27.64
2022-08-07T14:51:16.270Z,27.58
2022-08-07T14:56:33.080Z,27.53
2022-08-07T14:59:13.700Z,27.56
2022-08-07T15:01:58.172Z,27.35
2022-08-07T15:04:25.902Z,27.11
2022-08-07T15:06:57.044Z,27.46
2022-08-07T15:09:58.836Z,27.52
2022-08-07T15:13:06.393Z,27.40
2022-08-07T15:20:56.181Z,27.28
2022-08-07T15:25:12.791Z,27.63
2022-08-07T15:26:22.351Z,28.04
2022-08-07T15:28:59.507Z,27.44
2022-08-07T15:34:50.693Z,27.69
2022-08-07T15:37:28.795Z,27.89
2022-08-07T15:40:33.723Z,27.63
2022-08-07T15:43:33.211Z,27.53
2022-08-07T15:46:37.267Z,27.52
2022-08-07T15:49:15.255Z,28.02
2022-08-07T15:54:30.818Z,28.26
2022-08-07T15:57:03.337Z,27.91
2022-08-07T15:59:39.486Z,28.11
2022-08-07T16:02:23.487Z,28.15
2022-08-07T16:04:57.818Z,28.01
2022-08-07T16:08:28.921Z,27.92
2022-08-07T16:10:20.977Z,27.84
2022-08-07T16:13:00.958Z,27.54
2022-08-07T16:15:57.247Z,27.27
2022-08-07T16:18:49.544Z,27.67
2022-08-07T16:22:04.183Z,27.68
2022-08-07T16:24:52.639Z,27.26
2022-08-07T16:27:39.788Z,26.99
2022-08-07T16:30:32.040Z,27.39
2022-08-07T16:34:02.860Z,27.58
2022-08-07T16:36:20.716Z,27.64
2022-08-07T16:39:40.169Z,27.74
2022-08-07T16:42:27.164Z,27.89
2022-08-07T16:46:21.238Z,28.18
2022-08-07T16:49:04.352Z,28.07
2022-08-07T16:52:11.244Z,27.81
2022-08-07T16:55:08.186Z,27.45
2022-08-07T16:58:15.905Z,27.30
2022-08-07T17:01:15.945Z,27.11
2022-08-07T17:04:00.170Z,27.05
2022-08-07T17:06:44.574Z,27.39
2022-08-07T17:10:06.852Z,27.48
2022-08-07T17:12:36.692Z,27.42
2022-08-07T17:15:16.799Z,27.15
2022-08-07T17:17:47.359Z,26.61
2022-08-07T17:20:38.020Z,26.80
2022-08-07T17:23:22.873Z,26.68
2022-08-07T17:26:22.824Z,26.46
2022-08-07T17:30:12.608Z,26.33
2022-08-07T17:32:29.990Z,26.33
2022-08-07T17:35:49.664Z,26.34
2022-08-07T17:38:33.414Z,26.26
2022-08-07T17:42:02.409Z,26.21
2022-08-07T17:44:46.920Z,26.04
2022-08-07T17:47:45.994Z,26.07
2022-08-07T17:50:30.159Z,26.06
2022-08-07T17:53:06.115Z,26.10
2022-08-07T17:55:54.941Z,26.08
2022-08-07T17:58:51.018Z,25.97
2022-08-07T18:01:28.944Z,25.81
2022-08-07T18:04:24.649Z,25.80
2022-08-07T18:07:24.696Z,25.82
2022-08-07T18:10:32.212Z,25.74
2022-08-07T18:12:59.772Z,25.72
2022-08-07T18:15:33.182Z,25.54
2022-08-07T18:18:47.544Z,25.56
2022-08-07T18:21:40.274Z,25.54
2022-08-07T18:24:33.389Z,25.40
2022-08-07T18:27:25.597Z,25.42
2022-08-07T18:30:32.897Z,25.35
2022-08-07T18:33:25.508Z,25.26
2022-08-07T18:36:05.871Z,25.21
2022-08-07T18:39:01.262Z,25.09
2022-08-07T18:41:49.003Z,24.82
2022-08-07T18:45:39.961Z,24.80
2022-08-07T18:48:01.554Z,24.63
2022-08-07T18:50:44.079Z,24.59
2022-08-07T18:53:16.414Z,24.48
2022-08-07T18:55:55.719Z,24.44
2022-08-07T18:58:54.066Z,24.33
2022-08-07T19:02:18.384Z,24.25
2022-08-07T19:04:38.834Z,24.21
2022-08-07T19:07:34.448Z,24.17
2022-08-07T19:10:18.177Z,24.16
2022-08-07T19:12:59.449Z,24.11
2022-08-07T19:16:05.929Z,24.10
2022-08-07T19:18:49.480Z,24.11
2022-08-07T19:21:53.499Z,24.02
2022-08-07T19:24:34.217Z,23.78
2022-08-07T19:29:02.892Z,23.84
2022-08-07T19:31:05.964Z,23.91
2022-08-07T19:32:49.412Z,23.90
2022-08-07T19:35:26.835Z,23.79
2022-08-07T19:37:59.907Z,23.68
2022-08-07T19:40:31.861Z,23.61
2022-08-07T19:43:02.403Z,23.53
2022-08-07T19:46:07.593Z,23.28
2022-08-07T19:48:25.585Z,23.10
2022-08-07T19:50:54.424Z,23.10
2022-08-07T19:54:32.447Z,23.19
2022-08-07T19:57:56.709Z,23.26
2022-08-07T19:59:06.942Z,22.68
2022-08-07T20:01:56.116Z,22.53
2022-08-07T20:04:37.553Z,22.35
2022-08-07T20:07:08.928Z,22.44
2022-08-07T20:10:37.166Z,22.58
2022-08-07T20:12:38.167Z,22.60
2022-08-07T20:15:11.742Z,22.50
2022-08-07T20:18:01.643Z,22.56
2022-08-07T20:20:32.015Z,22.42
2022-08-07T20:23:11.050Z,22.22
2022-08-07T20:25:54.125Z,22.12
2022-08-07T20:28:29.324Z,22.02
2022-08-07T20:30:58.226Z,21.95
2022-08-07T20:33:37.962Z,21.96
2022-08-07T20:36:09.932Z,21.97
2022-08-07T20:38:53.273Z,21.90
2022-08-07T20:41:28.764Z,21.81
2022-08-07T20:44:19.761Z,21.74
2022-08-07T20:46:48.340Z,21.68
2022-08-07T20:50:00.834Z,21.61
2022-08-07T20:52:30.052Z,21.62
2022-08-07T20:55:11.467Z,21.56
2022-08-07T20:58:12.305Z,21.43
2022-08-07T21:01:00.483Z,21.40
2022-08-07T21:03:27.901Z,21.46
2022-08-07T21:06:21.443Z,21.39
2022-08-07T21:09:01.044Z,21.43
2022-08-07T21:11:46.100Z,21.30
2022-08-07T21:14:31.811Z,21.29
2022-08-07T21:18:00.820Z,21.08
2022-08-07T21:20:05.323Z,20.88
2022-08-07T21:22:44.729Z,20.67
2022-08-07T21:25:23.628Z,20.56
2022-08-07T21:28:18.959Z,20.58
2022-08-07T21:31:04.984Z,20.39
2022-08-07T21:33:46.479Z,20.34
2022-08-07T21:36:38.505Z,20.16
2022-08-07T21:39:51.830Z,20.14
2022-08-07T21:42:45.973Z,20.14
2022-08-07T21:46:03.808Z,20.21
2022-08-07T21:48:26.889Z,20.30
2022-08-07T21:50:59.484Z,20.33
2022-08-07T21:53:52.392Z,19.78
2022-08-07T21:56:47.221Z,19.41
2022-08-07T22:00:04.073Z,19.35
2022-08-07T22:02:53.874Z,19.30
2022-08-07T22:05:44.791Z,19.27
2022-08-07T22:08:18.958Z,19.42
2022-08-07T22:10:54.615Z,19.39
2022-08-07T22:13:24.530Z,19.32
2022-08-07T22:16:45.609Z,19.39
2022-08-07T22:19:36.933Z,19.44
2022-08-07T22:22:28.508Z,19.35
2022-08-07T22:25:07.582Z,19.05
2022-08-07T22:28:07.570Z,18.72
2022-08-07T22:30:39.789Z,18.82
2022-08-07T22:33:12.309Z,18.71
2022-08-07T22:36:09.533Z,18.56
2022-08-07T22:38:53.980Z,18.67
2022-08-07T22:42:03.016Z,18.83
2022-08-07T22:44:35.618Z,18.94
2022-08-07T22:47:28.398Z,18.69
2022-08-07T22:50:29.119Z,18.57
2022-08-07T22:54:04.985Z,18.56
2022-08-07T22:56:13.050Z,18.58
2022-08-07T22:58:51.721Z,18.76
2022-08-07T23:01:30.495Z,18.93
2022-08-07T23:04:30.154Z,18.92
2022-08-07T23:07:39.787Z,18.83
2022-08-07T23:10:36.363Z,18.68
2022-08-07T23:13:29.044Z,18.69
2022-08-07T23:16:44.783Z,18.65
2022-08-07T23:19:59.950Z,18.57
2022-08-07T23:22:32.629Z,18.61
2022-08-07T23:25:14.692Z,18.57
2022-08-07T23:28:21.191Z,18.52
2022-08-07T23:31:05.589Z,18.60
2022-08-07T23:34:34.556Z,18.67
2022-08-07T23:37:19.270Z,18.56
2022-08-07T23:40:10.482Z,18.56
2022-08-07T23:43:01.482Z,18.31
2022-08-07T23:46:02.585Z,18.02
2022-08-07T23:48:59.869Z,17.96
2022-08-07T23:53:01.447Z,18.13
2022-08-07T23:54:52.834Z,18.21
2022-08-07T23:57:34.903Z,18.24
